sensor_id;sensor_type;location;lat;lon;timestamp;pressure;altitude;pressure_sealevel;temperature
49593;BMP280;35499;51.482;4.264;2023-11-22T00:00:08;102699.91;;;5.96
49593;BMP280;35499;51.482;4.264;2023-11-22T00:02:33;102704.88;;;5.93
49593;BMP280;35499;51.482;4.264;2023-11-22T00:04:59;102703.03;;;5.88
49593;BMP280;35499;51.482;4.264;2023-11-22T00:07:25;102703.72;;;5.84
49593;BMP280;35499;51.482;4.264;2023-11-22T00:09:52;102692.56;;;5.80
49593;BMP280;35499;51.482;4.264;2023-11-22T00:12:18;102679.75;;;5.79
49593;BMP280;35499;51.482;4.264;2023-11-22T00:14:43;102683.00;;;5.75
49593;BMP280;35499;51.482;4.264;2023-11-22T00:17:08;102678.69;;;5.72
49593;BMP280;35499;51.482;4.264;2023-11-22T00:19:35;102667.50;;;5.69
49593;BMP280;35499;51.482;4.264;2023-11-22T00:22:01;102676.91;;;5.70
49593;BMP280;35499;51.482;4.264;2023-11-22T00:24:30;102673.47;;;5.70
49593;BMP280;35499;51.482;4.264;2023-11-22T00:26:55;102676.81;;;5.67
49593;BMP280;35499;51.482;4.264;2023-11-22T00:29:21;102678.41;;;5.65
49593;BMP280;35499;51.482;4.264;2023-11-22T00:31:47;102674.81;;;5.60
49593;BMP280;35499;51.482;4.264;2023-11-22T00:34:12;102685.75;;;5.58
49593;BMP280;35499;51.482;4.264;2023-11-22T00:36:37;102686.53;;;5.55
49593;BMP280;35499;51.482;4.264;2023-11-22T00:39:03;102688.16;;;5.53
49593;BMP280;35499;51.482;4.264;2023-11-22T00:41:32;102685.44;;;5.49
49593;BMP280;35499;51.482;4.264;2023-11-22T00:43:57;102687.91;;;5.46
49593;BMP280;35499;51.482;4.264;2023-11-22T00:46:22;102689.50;;;5.43
49593;BMP280;35499;51.482;4.264;2023-11-22T00:48:47;102692.78;;;5.40
49593;BMP280;35499;51.482;4.264;2023-11-22T00:51:13;102697.00;;;5.40
49593;BMP280;35499;51.482;4.264;2023-11-22T00:53:38;102699.50;;;5.38
49593;BMP280;35499;51.482;4.264;2023-11-22T00:56:05;102699.50;;;5.38
49593;BMP280;35499;51.482;4.264;2023-11-22T00:58:31;102706.25;;;5.38
49593;BMP280;35499;51.482;4.264;2023-11-22T01:00:59;102701.13;;;5.36
49593;BMP280;35499;51.482;4.264;2023-11-22T01:03:24;102704.56;;;5.37
49593;BMP280;35499;51.482;4.264;2023-11-22T01:05:49;102702.81;;;5.36
49593;BMP280;35499;51.482;4.264;2023-11-22T01:08:15;102710.31;;;5.33
49593;BMP280;35499;51.482;4.264;2023-11-22T01:10:40;102716.19;;;5.31
49593;BMP280;35499;51.482;4.264;2023-11-22T01:13:05;102720.31;;;5.27
49593;BMP280;35499;51.482;4.264;2023-11-22T01:15:30;102719.44;;;5.27
49593;BMP280;35499;51.482;4.264;2023-11-22T01:17:56;102732.28;;;5.30
49593;BMP280;35499;51.482;4.264;2023-11-22T01:20:21;102733.97;;;5.29
49593;BMP280;35499;51.482;4.264;2023-11-22T01:22:48;102741.59;;;5.29
49593;BMP280;35499;51.482;4.264;2023-11-22T01:25:14;102737.22;;;5.25
49593;BMP280;35499;51.482;4.264;2023-11-22T01:27:39;102742.22;;;5.22
49593;BMP280;35499;51.482;4.264;2023-11-22T01:30:05;102773.66;;;5.23
49593;BMP280;35499;51.482;4.264;2023-11-22T01:32:32;102769.38;;;5.23
49593;BMP280;35499;51.482;4.264;2023-11-22T01:34:57;102770.34;;;5.25
49593;BMP280;35499;51.482;4.264;2023-11-22T01:37:24;102773.84;;;5.29
49593;BMP280;35499;51.482;4.264;2023-11-22T01:39:49;102774.84;;;5.32
49593;BMP280;35499;51.482;4.264;2023-11-22T01:42:14;102770.66;;;5.34
49593;BMP280;35499;51.482;4.264;2023-11-22T01:44:40;102759.75;;;5.38
49593;BMP280;35499;51.482;4.264;2023-11-22T01:47:06;102756.47;;;5.40
49593;BMP280;35499;51.482;4.264;2023-11-22T01:49:34;102741.94;;;5.38
49593;BMP280;35499;51.482;4.264;2023-11-22T01:52:01;102751.28;;;5.37
49593;BMP280;35499;51.482;4.264;2023-11-22T01:54:27;102746.22;;;5.39
49593;BMP280;35499;51.482;4.264;2023-11-22T01:56:53;102745.41;;;5.40
49593;BMP280;35499;51.482;4.264;2023-11-22T01:59:19;102754.66;;;5.38
49593;BMP280;35499;51.482;4.264;2023-11-22T02:01:44;102742.63;;;5.34
49593;BMP280;35499;51.482;4.264;2023-11-22T02:04:12;102756.09;;;5.30
49593;BMP280;35499;51.482;4.264;2023-11-22T02:06:39;102762.69;;;5.25
49593;BMP280;35499;51.482;4.264;2023-11-22T02:09:04;102765.16;;;5.24
49593;BMP280;35499;51.482;4.264;2023-11-22T02:11:29;102774.50;;;5.23
49593;BMP280;35499;51.482;4.264;2023-11-22T02:13:54;102776.94;;;5.20
49593;BMP280;35499;51.482;4.264;2023-11-22T02:16:20;102756.47;;;5.18
49593;BMP280;35499;51.482;4.264;2023-11-22T02:18:46;102757.97;;;5.13
49593;BMP280;35499;51.482;4.264;2023-11-22T02:21:12;102768.09;;;5.11
49593;BMP280;35499;51.482;4.264;2023-11-22T02:23:37;102775.66;;;5.10
49593;BMP280;35499;51.482;4.264;2023-11-22T02:26:02;102771.34;;;5.07
49593;BMP280;35499;51.482;4.264;2023-11-22T02:28:28;102773.88;;;5.07
49593;BMP280;35499;51.482;4.264;2023-11-22T02:30:53;102769.59;;;5.06
49593;BMP280;35499;51.482;4.264;2023-11-22T02:33:19;102779.72;;;5.05
49593;BMP280;35499;51.482;4.264;2023-11-22T02:35:45;102786.44;;;5.03
49593;BMP280;35499;51.482;4.264;2023-11-22T02:38:10;102781.34;;;5.03
49593;BMP280;35499;51.482;4.264;2023-11-22T02:40:35;102777.06;;;5.02
49593;BMP280;35499;51.482;4.264;2023-11-22T02:43:01;102770.97;;;4.99
49593;BMP280;35499;51.482;4.264;2023-11-22T02:45:30;102772.47;;;4.94
49593;BMP280;35499;51.482;4.264;2023-11-22T02:47:56;102773.25;;;4.91
49593;BMP280;35499;51.482;4.264;2023-11-22T02:50:21;102776.53;;;4.89
49593;BMP280;35499;51.482;4.264;2023-11-22T02:52:46;102776.47;;;4.87
49593;BMP280;35499;51.482;4.264;2023-11-22T02:55:12;102772.13;;;4.85
49593;BMP280;35499;51.482;4.264;2023-11-22T02:57:38;102761.03;;;4.83
49593;BMP280;35499;51.482;4.264;2023-11-22T03:00:05;102759.22;;;4.81
49593;BMP280;35499;51.482;4.264;2023-11-22T03:02:32;102777.03;;;4.81
49593;BMP280;35499;51.482;4.264;2023-11-22T03:04:57;102771.00;;;4.79
49593;BMP280;35499;51.482;4.264;2023-11-22T03:07:24;102774.31;;;4.76
49593;BMP280;35499;51.482;4.264;2023-11-22T03:09:50;102780.22;;;4.75
49593;BMP280;35499;51.482;4.264;2023-11-22T03:12:16;102781.88;;;4.75
49593;BMP280;35499;51.482;4.264;2023-11-22T03:14:41;102782.75;;;4.75
49593;BMP280;35499;51.482;4.264;2023-11-22T03:17:07;102782.84;;;4.77
49593;BMP280;35499;51.482;4.264;2023-11-22T03:19:33;102778.53;;;4.76
49593;BMP280;35499;51.482;4.264;2023-11-22T03:21:59;102778.47;;;4.74
49593;BMP280;35499;51.482;4.264;2023-11-22T03:24:25;102770.97;;;4.77
49593;BMP280;35499;51.482;4.264;2023-11-22T03:26:50;102777.75;;;4.77
49593;BMP280;35499;51.482;4.264;2023-11-22T03:29:17;102786.28;;;4.79
49593;BMP280;35499;51.482;4.264;2023-11-22T03:31:43;102786.41;;;4.82
49593;BMP280;35499;51.482;4.264;2023-11-22T03:34:09;102789.84;;;4.82
49593;BMP280;35499;51.482;4.264;2023-11-22T03:36:34;102794.97;;;4.83
49593;BMP280;35499;51.482;4.264;2023-11-22T03:38:59;102798.34;;;4.82
49593;BMP280;35499;51.482;4.264;2023-11-22T03:41:24;102807.66;;;4.82
49593;BMP280;35499;51.482;4.264;2023-11-22T03:43:50;102807.66;;;4.82
49593;BMP280;35499;51.482;4.264;2023-11-22T03:46:15;102821.38;;;4.85
49593;BMP280;35499;51.482;4.264;2023-11-22T03:48:40;102823.91;;;4.85
49593;BMP280;35499;51.482;4.264;2023-11-22T03:51:05;102824.78;;;4.86
49593;BMP280;35499;51.482;4.264;2023-11-22T03:53:31;102827.41;;;4.87
49593;BMP280;35499;51.482;4.264;2023-11-22T03:55:57;102822.31;;;4.87
49593;BMP280;35499;51.482;4.264;2023-11-22T03:58:22;102839.44;;;4.91
49593;BMP280;35499;51.482;4.264;2023-11-22T04:00:48;102848.91;;;4.95
49593;BMP280;35499;51.482;4.264;2023-11-22T04:03:13;102849.97;;;5.00
49593;BMP280;35499;51.482;4.264;2023-11-22T04:05:38;102852.75;;;5.06
49593;BMP280;35499;51.482;4.264;2023-11-22T04:08:04;102854.66;;;5.11
49593;BMP280;35499;51.482;4.264;2023-11-22T04:10:29;102855.66;;;5.15
49593;BMP280;35499;51.482;4.264;2023-11-22T04:12:55;102857.38;;;5.16
49593;BMP280;35499;51.482;4.264;2023-11-22T04:15:21;102866.72;;;5.15
49593;BMP280;35499;51.482;4.264;2023-11-22T04:17:46;102862.56;;;5.17
49593;BMP280;35499;51.482;4.264;2023-11-22T04:20:12;102867.69;;;5.18
49593;BMP280;35499;51.482;4.264;2023-11-22T04:22:43;102859.13;;;5.17
49593;BMP280;35499;51.482;4.264;2023-11-22T04:25:10;102865.97;;;5.18
49593;BMP280;35499;51.482;4.264;2023-11-22T04:27:38;102865.09;;;5.17
49593;BMP280;35499;51.482;4.264;2023-11-22T04:30:07;102861.69;;;5.17
49593;BMP280;35499;51.482;4.264;2023-11-22T04:32:35;102869.31;;;5.17
49593;BMP280;35499;51.482;4.264;2023-11-22T04:35:01;102859.94;;;5.16
49593;BMP280;35499;51.482;4.264;2023-11-22T04:37:29;102864.22;;;5.17
49593;BMP280;35499;51.482;4.264;2023-11-22T04:39:56;102864.22;;;5.17
49593;BMP280;35499;51.482;4.264;2023-11-22T04:42:22;102859.13;;;5.17
49593;BMP280;35499;51.482;4.264;2023-11-22T04:44:47;102848.88;;;5.15
49593;BMP280;35499;51.482;4.264;2023-11-22T04:47:12;102853.03;;;5.13
49593;BMP280;35499;51.482;4.264;2023-11-22T04:49:38;102865.72;;;5.12
49593;BMP280;35499;51.482;4.264;2023-11-22T04:52:03;102862.31;;;5.11
49593;BMP280;35499;51.482;4.264;2023-11-22T04:54:29;102867.34;;;5.10
49593;BMP280;35499;51.482;4.264;2023-11-22T04:56:54;102875.78;;;5.09
49593;BMP280;35499;51.482;4.264;2023-11-22T04:59:19;102868.09;;;5.07
49593;BMP280;35499;51.482;4.264;2023-11-22T05:01:45;102870.56;;;5.06
49593;BMP280;35499;51.482;4.264;2023-11-22T05:04:10;102868.03;;;5.06
49593;BMP280;35499;51.482;4.264;2023-11-22T05:06:35;102862.88;;;5.04
49593;BMP280;35499;51.482;4.264;2023-11-22T05:09:01;102860.16;;;5.00
49593;BMP280;35499;51.482;4.264;2023-11-22T05:11:26;102854.97;;;4.99
49593;BMP280;35499;51.482;4.264;2023-11-22T05:13:52;102861.72;;;4.97
49593;BMP280;35499;51.482;4.264;2023-11-22T05:16:17;102864.19;;;4.95
49593;BMP280;35499;51.482;4.264;2023-11-22T05:18:42;102864.09;;;4.92
49593;BMP280;35499;51.482;4.264;2023-11-22T05:21:08;102868.34;;;4.93
49593;BMP280;35499;51.482;4.264;2023-11-22T05:23:33;102855.56;;;4.92
49593;BMP280;35499;51.482;4.264;2023-11-22T05:25:58;102856.44;;;4.92
49593;BMP280;35499;51.482;4.264;2023-11-22T05:28:26;102854.69;;;4.91
49593;BMP280;35499;51.482;4.264;2023-11-22T05:30:51;102854.69;;;4.91
49593;BMP280;35499;51.482;4.264;2023-11-22T05:33:17;102867.38;;;4.90
49593;BMP280;35499;51.482;4.264;2023-11-22T05:35:42;102856.31;;;4.89
49593;BMP280;35499;51.482;4.264;2023-11-22T05:38:08;102855.41;;;4.87
49593;BMP280;35499;51.482;4.264;2023-11-22T05:40:33;102848.63;;;4.88
49593;BMP280;35499;51.482;4.264;2023-11-22T05:42:59;102842.66;;;4.87
49593;BMP280;35499;51.482;4.264;2023-11-22T05:45:24;102840.94;;;4.86
49593;BMP280;35499;51.482;4.264;2023-11-22T05:47:50;102839.25;;;4.87
49593;BMP280;35499;51.482;4.264;2023-11-22T05:50:16;102838.44;;;4.88
49593;BMP280;35499;51.482;4.264;2023-11-22T05:52:42;102835.84;;;4.86
49593;BMP280;35499;51.482;4.264;2023-11-22T05:55:07;102852.84;;;4.87
49593;BMP280;35499;51.482;4.264;2023-11-22T05:57:33;102852.00;;;4.88
49593;BMP280;35499;51.482;4.264;2023-11-22T05:59:58;102851.22;;;4.89
49593;BMP280;35499;51.482;4.264;2023-11-22T06:02:24;102850.47;;;4.92
49593;BMP280;35499;51.482;4.264;2023-11-22T06:04:50;102853.06;;;4.93
49593;BMP280;35499;51.482;4.264;2023-11-22T06:07:15;102843.81;;;4.95
49593;BMP280;35499;51.482;4.264;2023-11-22T06:09:41;102850.72;;;4.98
49593;BMP280;35499;51.482;4.264;2023-11-22T06:12:06;102853.28;;;4.98
49593;BMP280;35499;51.482;4.264;2023-11-22T06:14:32;102855.06;;;5.00
49593;BMP280;35499;51.482;4.264;2023-11-22T06:16:57;102877.97;;;5.00
49593;BMP280;35499;51.482;4.264;2023-11-22T06:19:22;102878.78;;;4.99
49593;BMP280;35499;51.482;4.264;2023-11-22T06:21:48;102883.00;;;4.99
49593;BMP280;35499;51.482;4.264;2023-11-22T06:24:13;102889.84;;;4.99
49593;BMP280;35499;51.482;4.264;2023-11-22T06:26:42;102901.69;;;4.99
49593;BMP280;35499;51.482;4.264;2023-11-22T06:29:08;102906.78;;;4.99
49593;BMP280;35499;51.482;4.264;2023-11-22T06:31:33;102923.72;;;4.99
49593;BMP280;35499;51.482;4.264;2023-11-22T06:33:59;102925.44;;;4.98
49593;BMP280;35499;51.482;4.264;2023-11-22T06:36:26;102925.44;;;4.98
49593;BMP280;35499;51.482;4.264;2023-11-22T06:38:53;102912.72;;;4.98
49593;BMP280;35499;51.482;4.264;2023-11-22T06:41:19;102914.41;;;4.99
49593;BMP280;35499;51.482;4.264;2023-11-22T06:43:47;102910.19;;;4.99
49593;BMP280;35499;51.482;4.264;2023-11-22T06:46:12;102903.34;;;4.99
49593;BMP280;35499;51.482;4.264;2023-11-22T06:48:37;102894.88;;;4.98
49593;BMP280;35499;51.482;4.264;2023-11-22T06:51:03;102882.16;;;4.98
49593;BMP280;35499;51.482;4.264;2023-11-22T06:53:28;102871.97;;;4.98
49593;BMP280;35499;51.482;4.264;2023-11-22T06:55:53;102877.88;;;4.97
49593;BMP280;35499;51.482;4.264;2023-11-22T06:58:19;102864.25;;;4.97
49593;BMP280;35499;51.482;4.264;2023-11-22T07:00:44;102867.63;;;4.96
49593;BMP280;35499;51.482;4.264;2023-11-22T07:03:09;102855.75;;;4.96
49593;BMP280;35499;51.482;4.264;2023-11-22T07:05:36;102870.22;;;4.97
49593;BMP280;35499;51.482;4.264;2023-11-22T07:08:02;102875.31;;;4.97
49593;BMP280;35499;51.482;4.264;2023-11-22T07:10:28;102878.66;;;4.96
49593;BMP280;35499;51.482;4.264;2023-11-22T07:12:53;102876.91;;;4.95
49593;BMP280;35499;51.482;4.264;2023-11-22T07:15:18;102881.13;;;4.95
49593;BMP280;35499;51.482;4.264;2023-11-22T07:17:44;102884.50;;;4.94
49593;BMP280;35499;51.482;4.264;2023-11-22T07:20:10;102894.63;;;4.92
49593;BMP280;35499;51.482;4.264;2023-11-22T07:22:40;102892.88;;;4.91
49593;BMP280;35499;51.482;4.264;2023-11-22T07:25:08;102891.22;;;4.92
49593;BMP280;35499;51.482;4.264;2023-11-22T07:27:43;102909.06;;;4.93
49593;BMP280;35499;51.482;4.264;2023-11-22T07:30:08;102917.53;;;4.92
49593;BMP280;35499;51.482;4.264;2023-11-22T07:32:35;102921.00;;;4.94
49593;BMP280;35499;51.482;4.264;2023-11-22T07:35:00;102921.00;;;4.94
49593;BMP280;35499;51.482;4.264;2023-11-22T07:37:28;102933.81;;;4.96
49593;BMP280;35499;51.482;4.264;2023-11-22T07:39:53;102930.47;;;4.97
49593;BMP280;35499;51.482;4.264;2023-11-22T07:42:19;102912.72;;;4.98
49593;BMP280;35499;51.482;4.264;2023-11-22T07:44:44;102908.47;;;4.99
49593;BMP280;35499;51.482;4.264;2023-11-22T07:47:09;102912.06;;;5.03
49593;BMP280;35499;51.482;4.264;2023-11-22T07:49:38;102925.72;;;5.05
49593;BMP280;35499;51.482;4.264;2023-11-22T07:52:04;102923.25;;;5.07
49593;BMP280;35499;51.482;4.264;2023-11-22T07:54:31;102936.91;;;5.09
49593;BMP280;35499;51.482;4.264;2023-11-22T07:56:56;102960.00;;;5.13
49593;BMP280;35499;51.482;4.264;2023-11-22T07:59:21;102961.00;;;5.17
49593;BMP280;35499;51.482;4.264;2023-11-22T08:01:47;102978.25;;;5.23
49593;BMP280;35499;51.482;4.264;2023-11-22T08:04:13;102959.88;;;5.30
49593;BMP280;35499;51.482;4.264;2023-11-22T08:06:38;102961.88;;;5.37
49593;BMP280;35499;51.482;4.264;2023-11-22T08:09:04;102970.66;;;5.45
49593;BMP280;35499;51.482;4.264;2023-11-22T08:11:29;102964.22;;;5.53
49593;BMP280;35499;51.482;4.264;2023-11-22T08:13:57;102955.91;;;5.58
49593;BMP280;35499;51.482;4.264;2023-11-22T08:16:25;102963.75;;;5.62
49593;BMP280;35499;51.482;4.264;2023-11-22T08:18:50;102969.94;;;5.67
49593;BMP280;35499;51.482;4.264;2023-11-22T08:21:16;102956.50;;;5.71
49593;BMP280;35499;51.482;4.264;2023-11-22T08:23:42;102963.50;;;5.76
49593;BMP280;35499;51.482;4.264;2023-11-22T08:26:08;102967.16;;;5.83
49593;BMP280;35499;51.482;4.264;2023-11-22T08:28:34;102970.53;;;5.83
49593;BMP280;35499;51.482;4.264;2023-11-22T08:30:59;102974.03;;;5.85
49593;BMP280;35499;51.482;4.264;2023-11-22T08:33:26;102967.25;;;5.86
49593;BMP280;35499;51.482;4.264;2023-11-22T08:35:51;102967.38;;;5.89
49593;BMP280;35499;51.482;4.264;2023-11-22T08:38:24;102975.25;;;5.94
49593;BMP280;35499;51.482;4.264;2023-11-22T08:40:49;102978.91;;;6.01
49593;BMP280;35499;51.482;4.264;2023-11-22T08:43:15;102976.63;;;6.08
49593;BMP280;35499;51.482;4.264;2023-11-22T08:45:41;102985.53;;;6.19
49593;BMP280;35499;51.482;4.264;2023-11-22T08:48:09;102989.53;;;6.34
49593;BMP280;35499;51.482;4.264;2023-11-22T08:50:34;102983.34;;;6.50
49593;BMP280;35499;51.482;4.264;2023-11-22T08:53:00;102979.00;;;6.71
49593;BMP280;35499;51.482;4.264;2023-11-22T08:55:26;102988.25;;;6.92
49593;BMP280;35499;51.482;4.264;2023-11-22T08:57:51;102971.13;;;7.14
49593;BMP280;35499;51.482;4.264;2023-11-22T09:00:17;102966.44;;;7.51
49593;BMP280;35499;51.482;4.264;2023-11-22T09:02:48;102960.78;;;7.88
49593;BMP280;35499;51.482;4.264;2023-11-22T09:05:13;102963.53;;;8.21
49593;BMP280;35499;51.482;4.264;2023-11-22T09:07:39;102965.16;;;8.48
49593;BMP280;35499;51.482;4.264;2023-11-22T09:10:05;102967.41;;;8.68
49593;BMP280;35499;51.482;4.264;2023-11-22T09:12:36;102960.41;;;8.91
49593;BMP280;35499;51.482;4.264;2023-11-22T09:15:02;102973.78;;;9.13
49593;BMP280;35499;51.482;4.264;2023-11-22T09:17:29;102976.00;;;9.33
49593;BMP280;35499;51.482;4.264;2023-11-22T09:19:54;102992.25;;;9.33
49593;BMP280;35499;51.482;4.264;2023-11-22T09:22:21;102992.97;;;9.28
49593;BMP280;35499;51.482;4.264;2023-11-22T09:24:46;102992.69;;;9.16
49593;BMP280;35499;51.482;4.264;2023-11-22T09:27:11;102989.88;;;9.08
49593;BMP280;35499;51.482;4.264;2023-11-22T09:29:40;102995.75;;;9.04
49593;BMP280;35499;51.482;4.264;2023-11-22T09:32:05;102989.88;;;9.08
49593;BMP280;35499;51.482;4.264;2023-11-22T09:34:31;103001.03;;;9.10
49593;BMP280;35499;51.482;4.264;2023-11-22T09:36:57;102994.31;;;9.14
49593;BMP280;35499;51.482;4.264;2023-11-22T09:39:22;103006.34;;;9.17
49593;BMP280;35499;51.482;4.264;2023-11-22T09:41:50;103009.09;;;9.24
49593;BMP280;35499;51.482;4.264;2023-11-22T09:44:16;103029.69;;;9.27
49593;BMP280;35499;51.482;4.264;2023-11-22T09:46:42;103015.53;;;9.41
49593;BMP280;35499;51.482;4.264;2023-11-22T09:49:08;103016.56;;;9.48
49593;BMP280;35499;51.482;4.264;2023-11-22T09:51:37;103007.19;;;9.49
49593;BMP280;35499;51.482;4.264;2023-11-22T09:54:06;103018.34;;;9.51
49593;BMP280;35499;51.482;4.264;2023-11-22T09:56:34;103016.88;;;9.60
49593;BMP280;35499;51.482;4.264;2023-11-22T09:59:03;103011.28;;;9.76
49593;BMP280;35499;51.482;4.264;2023-11-22T10:04:33;103008.84;;;10.18
49593;BMP280;35499;51.482;4.264;2023-11-22T10:06:59;103020.91;;;10.21
49593;BMP280;35499;51.482;4.264;2023-11-22T10:09:25;103009.28;;;10.38
49593;BMP280;35499;51.482;4.264;2023-11-22T10:11:52;103052.31;;;10.48
49593;BMP280;35499;51.482;4.264;2023-11-22T10:14:23;103038.00;;;10.58
49593;BMP280;35499;51.482;4.264;2023-11-22T10:17:00;103036.72;;;10.79
49593;BMP280;35499;51.482;4.264;2023-11-22T10:19:26;103032.84;;;11.02
49593;BMP280;35499;51.482;4.264;2023-11-22T10:22:05;103038.38;;;11.21
49593;BMP280;35499;51.482;4.264;2023-11-22T10:24:31;103073.16;;;11.45
49593;BMP280;35499;51.482;4.264;2023-11-22T10:26:58;103043.78;;;11.83
49593;BMP280;35499;51.482;4.264;2023-11-22T10:29:25;103050.97;;;12.04
49593;BMP280;35499;51.482;4.264;2023-11-22T10:31:50;103047.00;;;12.25
49593;BMP280;35499;51.482;4.264;2023-11-22T10:34:20;103039.72;;;12.59
49593;BMP280;35499;51.482;4.264;2023-11-22T10:36:46;103019.75;;;13.14
49593;BMP280;35499;51.482;4.264;2023-11-22T10:39:12;103019.28;;;13.58
49593;BMP280;35499;51.482;4.264;2023-11-22T10:41:41;103020.28;;;13.74
49593;BMP280;35499;51.482;4.264;2023-11-22T10:44:07;103007.53;;;13.92
49593;BMP280;35499;51.482;4.264;2023-11-22T10:46:33;102999.06;;;14.13
49593;BMP280;35499;51.482;4.264;2023-11-22T10:48:58;102994.81;;;14.27
49593;BMP280;35499;51.482;4.264;2023-11-22T10:51:34;102982.72;;;14.18
49593;BMP280;35499;51.482;4.264;2023-11-22T10:54:02;103003.09;;;13.77
49593;BMP280;35499;51.482;4.264;2023-11-22T10:56:35;102977.09;;;13.57
49593;BMP280;35499;51.482;4.264;2023-11-22T10:59:09;102976.81;;;13.25
49593;BMP280;35499;51.482;4.264;2023-11-22T11:01:35;102981.78;;;13.02
49593;BMP280;35499;51.482;4.264;2023-11-22T11:04:02;102975.53;;;12.81
49593;BMP280;35499;51.482;4.264;2023-11-22T11:06:32;102977.94;;;12.65
49593;BMP280;35499;51.482;4.264;2023-11-22T11:09:03;102977.78;;;12.53
49593;BMP280;35499;51.482;4.264;2023-11-22T11:11:40;102989.66;;;12.42
49593;BMP280;35499;51.482;4.264;2023-11-22T11:14:08;102985.56;;;12.57
49593;BMP280;35499;51.482;4.264;2023-11-22T11:16:38;102988.16;;;12.59
49593;BMP280;35499;51.482;4.264;2023-11-22T11:19:07;102984.66;;;12.54
49593;BMP280;35499;51.482;4.264;2023-11-22T11:21:33;102981.25;;;12.58
49593;BMP280;35499;51.482;4.264;2023-11-22T11:23:58;102962.50;;;12.68
49593;BMP280;35499;51.482;4.264;2023-11-22T11:26:28;102976.50;;;12.90
49593;BMP280;35499;51.482;4.264;2023-11-22T11:28:55;102982.91;;;13.31
49593;BMP280;35499;51.482;4.264;2023-11-22T11:31:21;102981.44;;;13.61
49593;BMP280;35499;51.482;4.264;2023-11-22T11:36:21;102981.47;;;13.64
49593;BMP280;35499;51.482;4.264;2023-11-22T11:38:47;102975.31;;;13.50
49593;BMP280;35499;51.482;4.264;2023-11-22T11:41:14;102993.91;;;13.08
49593;BMP280;35499;51.482;4.264;2023-11-22T11:43:47;103006.34;;;12.70
49593;BMP280;35499;51.482;4.264;2023-11-22T11:46:16;102994.00;;;12.45
49593;BMP280;35499;51.482;4.264;2023-11-22T11:48:47;102991.78;;;12.07
49593;BMP280;35499;51.482;4.264;2023-11-22T11:51:14;102995.53;;;11.72
49593;BMP280;35499;51.482;4.264;2023-11-22T11:53:40;102998.38;;;11.37
49593;BMP280;35499;51.482;4.264;2023-11-22T11:56:05;102990.38;;;11.23
49593;BMP280;35499;51.482;4.264;2023-11-22T11:58:32;102995.31;;;11.11
49593;BMP280;35499;51.482;4.264;2023-11-22T12:00:57;103004.66;;;11.05
49593;BMP280;35499;51.482;4.264;2023-11-22T12:03:23;103006.19;;;10.95
49593;BMP280;35499;51.482;4.264;2023-11-22T12:05:49;102994.16;;;10.94
49593;BMP280;35499;51.482;4.264;2023-11-22T12:08:14;103002.81;;;10.99
49593;BMP280;35499;51.482;4.264;2023-11-22T12:10:44;102995.19;;;11.04
49593;BMP280;35499;51.482;4.264;2023-11-22T12:13:18;102988.53;;;11.14
49593;BMP280;35499;51.482;4.264;2023-11-22T12:15:43;102991.38;;;11.27
49593;BMP280;35499;51.482;4.264;2023-11-22T12:18:09;102983.09;;;11.46
49593;BMP280;35499;51.482;4.264;2023-11-22T12:20:37;102975.63;;;11.62
49593;BMP280;35499;51.482;4.264;2023-11-22T12:23:02;102967.25;;;11.76
49593;BMP280;35499;51.482;4.264;2023-11-22T12:25:29;102956.19;;;11.81
49593;BMP280;35499;51.482;4.264;2023-11-22T12:27:55;102955.31;;;11.81
49593;BMP280;35499;51.482;4.264;2023-11-22T12:30:31;102949.19;;;11.72
49593;BMP280;35499;51.482;4.264;2023-11-22T12:33:00;102954.00;;;11.50
49593;BMP280;35499;51.482;4.264;2023-11-22T12:35:27;102945.84;;;11.25
49593;BMP280;35499;51.482;4.264;2023-11-22T12:37:52;102937.63;;;10.97
49593;BMP280;35499;51.482;4.264;2023-11-22T12:40:20;102922.00;;;10.84
49593;BMP280;35499;51.482;4.264;2023-11-22T12:42:50;102922.06;;;10.89
49593;BMP280;35499;51.482;4.264;2023-11-22T12:45:23;102927.16;;;10.86
49593;BMP280;35499;51.482;4.264;2023-11-22T12:47:50;102918.44;;;10.78
49593;BMP280;35499;51.482;4.264;2023-11-22T12:50:35;102932.72;;;10.63
49593;BMP280;35499;51.482;4.264;2023-11-22T12:53:13;102926.38;;;10.45
49593;BMP280;35499;51.482;4.264;2023-11-22T12:55:43;102919.88;;;10.19
49593;BMP280;35499;51.482;4.264;2023-11-22T12:58:09;102909.25;;;10.03
49593;BMP280;35499;51.482;4.264;2023-11-22T13:00:34;102916.91;;;10.01
49593;BMP280;35499;51.482;4.264;2023-11-22T13:03:01;102918.66;;;10.03
49593;BMP280;35499;51.482;4.264;2023-11-22T13:05:26;102921.25;;;10.04
49593;BMP280;35499;51.482;4.264;2023-11-22T13:07:51;102920.44;;;10.05
49593;BMP280;35499;51.482;4.264;2023-11-22T13:10:18;102912.56;;;9.98
49593;BMP280;35499;51.482;4.264;2023-11-22T13:12:44;102898.63;;;9.86
49593;BMP280;35499;51.482;4.264;2023-11-22T13:15:11;102895.78;;;9.76
49593;BMP280;35499;51.482;4.264;2023-11-22T13:17:37;102903.19;;;9.63
49593;BMP280;35499;51.482;4.264;2023-11-22T13:20:03;102908.97;;;9.54
49593;BMP280;35499;51.482;4.264;2023-11-22T13:22:30;102906.22;;;9.47
49593;BMP280;35499;51.482;4.264;2023-11-22T13:24:56;102894.91;;;9.36
49593;BMP280;35499;51.482;4.264;2023-11-22T13:27:23;102881.78;;;9.25
49593;BMP280;35499;51.482;4.264;2023-11-22T13:29:49;102872.03;;;9.11
49593;BMP280;35499;51.482;4.264;2023-11-22T13:32:14;102871.81;;;9.02
49593;BMP280;35499;51.482;4.264;2023-11-22T13:34:39;102871.59;;;8.93
49593;BMP280;35499;51.482;4.264;2023-11-22T13:37:05;102877.25;;;8.80
49593;BMP280;35499;51.482;4.264;2023-11-22T13:39:30;102870.13;;;8.69
49593;BMP280;35499;51.482;4.264;2023-11-22T13:41:58;102869.97;;;8.63
49593;BMP280;35499;51.482;4.264;2023-11-22T13:44:23;102881.78;;;8.58
49593;BMP280;35499;51.482;4.264;2023-11-22T13:46:49;102879.91;;;8.52
49593;BMP280;35499;51.482;4.264;2023-11-22T13:49:14;102877.22;;;8.47
49593;BMP280;35499;51.482;4.264;2023-11-22T13:51:40;102878.78;;;8.42
49593;BMP280;35499;51.482;4.264;2023-11-22T13:54:05;102869.19;;;8.34
49593;BMP280;35499;51.482;4.264;2023-11-22T13:56:30;102874.09;;;8.27
49593;BMP280;35499;51.482;4.264;2023-11-22T13:58:56;102876.47;;;8.20
49593;BMP280;35499;51.482;4.264;2023-11-22T14:01:22;102877.97;;;8.12
49593;BMP280;35499;51.482;4.264;2023-11-22T14:03:48;102881.22;;;8.06
49593;BMP280;35499;51.482;4.264;2023-11-22T14:06:13;102874.25;;;8.03